sensor_id;sensor_type;location;lat;lon;timestamp;P1;durP1;ratioP1;P2;durP2;ratioP2
19940;SDS011;10132;50.864;5.176;2022-07-04T00:00:49;1.60;;;1.40;;
19940;SDS011;10132;50.864;5.176;2022-07-04T00:02:52;1.50;;;1.30;;
19940;SDS011;10132;50.864;5.176;2022-07-04T00:04:55;3.67;;;1.73;;
19940;SDS011;10132;50.864;5.176;2022-07-04T00:06:57;2.53;;;1.50;;
19940;SDS011;10132;50.864;5.176;2022-07-04T00:09:02;1.60;;;1.40;;
19940;SDS011;10132;50.864;5.176;2022-07-04T00:11:04;1.93;;;1.30;;
19940;SDS011;10132;50.864;5.176;2022-07-04T00:13:06;4.50;;;1.50;;
19940;SDS011;10132;50.864;5.176;2022-07-04T00:15:08;4.60;;;1.50;;
19940;SDS011;10132;50.864;5.176;2022-07-04T00:17:11;2.67;;;1.20;;
19940;SDS011;10132;50.864;5.176;2022-07-04T00:19:13;2.10;;;1.30;;
19940;SDS011;10132;50.864;5.176;2022-07-04T00:21:17;1.73;;;1.23;;
19940;SDS011;10132;50.864;5.176;2022-07-04T00:23:19;2.87;;;1.90;;
19940;SDS011;10132;50.864;5.176;2022-07-04T00:25:21;2.17;;;1.60;;
19940;SDS011;10132;50.864;5.176;2022-07-04T00:27:23;1.83;;;1.30;;
19940;SDS011;10132;50.864;5.176;2022-07-04T00:29:25;1.70;;;1.40;;
19940;SDS011;10132;50.864;5.176;2022-07-04T00:31:27;3.60;;;1.53;;
19940;SDS011;10132;50.864;5.176;2022-07-04T00:33:29;2.67;;;1.50;;
19940;SDS011;10132;50.864;5.176;2022-07-04T00:35:31;1.97;;;1.30;;
19940;SDS011;10132;50.864;5.176;2022-07-04T00:37:35;1.90;;;1.70;;
19940;SDS011;10132;50.864;5.176;2022-07-04T00:39:37;2.07;;;1.50;;
19940;SDS011;10132;50.864;5.176;2022-07-04T00:41:39;2.20;;;1.40;;
19940;SDS011;10132;50.864;5.176;2022-07-04T00:43:41;3.37;;;1.70;;
19940;SDS011;10132;50.864;5.176;2022-07-04T00:45:43;2.90;;;1.53;;
19940;SDS011;10132;50.864;5.176;2022-07-04T00:47:45;3.00;;;1.40;;
19940;SDS011;10132;50.864;5.176;2022-07-04T00:49:47;1.60;;;1.50;;
19940;SDS011;10132;50.864;5.176;2022-07-04T00:51:49;5.27;;;1.90;;
19940;SDS011;10132;50.864;5.176;2022-07-04T00:53:54;3.03;;;1.70;;
19940;SDS011;10132;50.864;5.176;2022-07-04T00:55:56;1.73;;;1.50;;
19940;SDS011;10132;50.864;5.176;2022-07-04T00:57:58;2.67;;;1.43;;
19940;SDS011;10132;50.864;5.176;2022-07-04T01:00:01;2.60;;;1.50;;
19940;SDS011;10132;50.864;5.176;2022-07-04T01:02:04;1.73;;;1.50;;
19940;SDS011;10132;50.864;5.176;2022-07-04T01:04:06;5.30;;;1.73;;
19940;SDS011;10132;50.864;5.176;2022-07-04T01:06:08;4.00;;;1.40;;
19940;SDS011;10132;50.864;5.176;2022-07-04T01:08:10;2.20;;;1.57;;
19940;SDS011;10132;50.864;5.176;2022-07-04T01:10:17;2.83;;;1.80;;
19940;SDS011;10132;50.864;5.176;2022-07-04T01:12:26;2.00;;;1.60;;
19940;SDS011;10132;50.864;5.176;2022-07-04T01:14:28;2.47;;;1.60;;
19940;SDS011;10132;50.864;5.176;2022-07-04T01:16:30;3.87;;;1.70;;
19940;SDS011;10132;50.864;5.176;2022-07-04T01:18:33;2.63;;;1.60;;
19940;SDS011;10132;50.864;5.176;2022-07-04T01:20:37;1.60;;;1.50;;
19940;SDS011;10132;50.864;5.176;2022-07-04T01:22:40;2.23;;;1.63;;
19940;SDS011;10132;50.864;5.176;2022-07-04T01:24:42;1.40;;;1.30;;
19940;SDS011;10132;50.864;5.176;2022-07-04T01:26:44;2.90;;;1.60;;
19940;SDS011;10132;50.864;5.176;2022-07-04T01:28:46;2.47;;;1.37;;
19940;SDS011;10132;50.864;5.176;2022-07-04T01:30:48;2.33;;;1.53;;
19940;SDS011;10132;50.864;5.176;2022-07-04T01:32:51;1.83;;;1.57;;
19940;SDS011;10132;50.864;5.176;2022-07-04T01:34:53;2.13;;;1.50;;
19940;SDS011;10132;50.864;5.176;2022-07-04T01:36:56;3.17;;;1.73;;
19940;SDS011;10132;50.864;5.176;2022-07-04T01:39:01;2.10;;;1.60;;
19940;SDS011;10132;50.864;5.176;2022-07-04T01:41:03;3.20;;;1.70;;
19940;SDS011;10132;50.864;5.176;2022-07-04T01:43:05;4.33;;;2.03;;
19940;SDS011;10132;50.864;5.176;2022-07-04T01:45:09;2.30;;;1.90;;
19940;SDS011;10132;50.864;5.176;2022-07-04T01:47:11;4.90;;;2.13;;
19940;SDS011;10132;50.864;5.176;2022-07-04T01:49:13;9.00;;;2.40;;
19940;SDS011;10132;50.864;5.176;2022-07-04T01:51:15;3.43;;;1.90;;
19940;SDS011;10132;50.864;5.176;2022-07-04T01:53:19;2.00;;;1.80;;
19940;SDS011;10132;50.864;5.176;2022-07-04T01:55:21;5.87;;;1.90;;
19940;SDS011;10132;50.864;5.176;2022-07-04T01:57:23;2.80;;;2.00;;
19940;SDS011;10132;50.864;5.176;2022-07-04T01:59:25;3.23;;;1.70;;
19940;SDS011;10132;50.864;5.176;2022-07-04T02:01:41;3.73;;;1.83;;
19940;SDS011;10132;50.864;5.176;2022-07-04T02:03:43;2.70;;;1.77;;
19940;SDS011;10132;50.864;5.176;2022-07-04T02:05:45;1.77;;;1.60;;
19940;SDS011;10132;50.864;5.176;2022-07-04T02:07:47;4.00;;;1.73;;
19940;SDS011;10132;50.864;5.176;2022-07-04T02:09:51;2.17;;;1.80;;
19940;SDS011;10132;50.864;5.176;2022-07-04T02:11:53;2.33;;;1.80;;
19940;SDS011;10132;50.864;5.176;2022-07-04T02:14:13;2.73;;;1.77;;
19940;SDS011;10132;50.864;5.176;2022-07-04T02:16:15;4.00;;;2.00;;
19940;SDS011;10132;50.864;5.176;2022-07-04T02:18:17;2.50;;;1.83;;
19940;SDS011;10132;50.864;5.176;2022-07-04T02:20:19;3.27;;;1.80;;
19940;SDS011;10132;50.864;5.176;2022-07-04T02:22:21;2.00;;;1.80;;
19940;SDS011;10132;50.864;5.176;2022-07-04T02:24:24;2.63;;;1.77;;
19940;SDS011;10132;50.864;5.176;2022-07-04T02:26:27;4.50;;;1.70;;
19940;SDS011;10132;50.864;5.176;2022-07-04T02:28:29;3.60;;;1.40;;
19940;SDS011;10132;50.864;5.176;2022-07-04T02:30:31;2.77;;;1.83;;
19940;SDS011;10132;50.864;5.176;2022-07-04T02:32:33;4.10;;;1.83;;
19940;SDS011;10132;50.864;5.176;2022-07-04T02:34:36;2.30;;;2.10;;
19940;SDS011;10132;50.864;5.176;2022-07-04T02:36:38;2.67;;;1.73;;
19940;SDS011;10132;50.864;5.176;2022-07-04T02:38:40;3.90;;;2.03;;
19940;SDS011;10132;50.864;5.176;2022-07-04T02:40:42;3.90;;;2.10;;
19940;SDS011;10132;50.864;5.176;2022-07-04T02:42:45;5.63;;;2.20;;
19940;SDS011;10132;50.864;5.176;2022-07-04T02:44:47;2.27;;;1.77;;
19940;SDS011;10132;50.864;5.176;2022-07-04T02:46:50;4.07;;;2.07;;
19940;SDS011;10132;50.864;5.176;2022-07-04T02:48:52;2.00;;;1.80;;
19940;SDS011;10132;50.864;5.176;2022-07-04T02:50:54;2.83;;;1.73;;
19940;SDS011;10132;50.864;5.176;2022-07-04T02:52:56;3.03;;;2.03;;
19940;SDS011;10132;50.864;5.176;2022-07-04T02:55:00;3.30;;;2.10;;
19940;SDS011;10132;50.864;5.176;2022-07-04T02:57:02;1.80;;;1.70;;
19940;SDS011;10132;50.864;5.176;2022-07-04T02:59:06;3.53;;;2.20;;
19940;SDS011;10132;50.864;5.176;2022-07-04T03:01:12;2.50;;;1.93;;
19940;SDS011;10132;50.864;5.176;2022-07-04T03:03:14;3.07;;;2.00;;
19940;SDS011;10132;50.864;5.176;2022-07-04T03:05:17;2.63;;;1.90;;
19940;SDS011;10132;50.864;5.176;2022-07-04T03:07:19;3.70;;;2.27;;
19940;SDS011;10132;50.864;5.176;2022-07-04T03:09:21;2.40;;;1.80;;
19940;SDS011;10132;50.864;5.176;2022-07-04T03:11:23;2.70;;;1.90;;
19940;SDS011;10132;50.864;5.176;2022-07-04T03:13:25;3.03;;;2.03;;
19940;SDS011;10132;50.864;5.176;2022-07-04T03:15:29;4.07;;;2.50;;
19940;SDS011;10132;50.864;5.176;2022-07-04T03:17:32;2.63;;;1.90;;
19940;SDS011;10132;50.864;5.176;2022-07-04T03:19:34;2.93;;;2.53;;
19940;SDS011;10132;50.864;5.176;2022-07-04T03:21:36;4.03;;;2.00;;
19940;SDS011;10132;50.864;5.176;2022-07-04T03:23:38;2.60;;;2.00;;
19940;SDS011;10132;50.864;5.176;2022-07-04T03:25:40;2.93;;;2.33;;
19940;SDS011;10132;50.864;5.176;2022-07-04T03:27:43;3.07;;;2.37;;
19940;SDS011;10132;50.864;5.176;2022-07-04T03:29:45;4.87;;;2.57;;
19940;SDS011;10132;50.864;5.176;2022-07-04T03:31:48;3.33;;;2.20;;
19940;SDS011;10132;50.864;5.176;2022-07-04T03:33:52;4.17;;;2.20;;
19940;SDS011;10132;50.864;5.176;2022-07-04T03:35:54;3.07;;;2.40;;
19940;SDS011;10132;50.864;5.176;2022-07-04T03:37:56;6.73;;;2.30;;
19940;SDS011;10132;50.864;5.176;2022-07-04T03:39:58;4.50;;;2.40;;
19940;SDS011;10132;50.864;5.176;2022-07-04T03:42:00;3.20;;;2.30;;
19940;SDS011;10132;50.864;5.176;2022-07-04T03:44:03;7.10;;;2.50;;
19940;SDS011;10132;50.864;5.176;2022-07-04T03:46:05;5.13;;;2.40;;
19940;SDS011;10132;50.864;5.176;2022-07-04T03:48:09;3.60;;;2.20;;
19940;SDS011;10132;50.864;5.176;2022-07-04T03:50:11;2.50;;;2.30;;
19940;SDS011;10132;50.864;5.176;2022-07-04T03:52:13;3.30;;;2.10;;
19940;SDS011;10132;50.864;5.176;2022-07-04T03:54:15;2.83;;;2.10;;
19940;SDS011;10132;50.864;5.176;2022-07-04T03:56:17;2.50;;;2.30;;
19940;SDS011;10132;50.864;5.176;2022-07-04T03:58:19;4.80;;;2.50;;
19940;SDS011;10132;50.864;5.176;2022-07-04T04:00:21;4.20;;;2.40;;
19940;SDS011;10132;50.864;5.176;2022-07-04T04:02:24;3.97;;;2.50;;
19940;SDS011;10132;50.864;5.176;2022-07-04T04:04:27;5.50;;;2.80;;
19940;SDS011;10132;50.864;5.176;2022-07-04T04:06:47;3.13;;;2.17;;
19940;SDS011;10132;50.864;5.176;2022-07-04T04:08:49;5.07;;;2.70;;
19940;SDS011;10132;50.864;5.176;2022-07-04T04:10:52;4.67;;;2.50;;
19940;SDS011;10132;50.864;5.176;2022-07-04T04:12:54;3.93;;;2.80;;
19940;SDS011;10132;50.864;5.176;2022-07-04T04:14:56;4.57;;;2.80;;
19940;SDS011;10132;50.864;5.176;2022-07-04T04:16:58;5.60;;;3.03;;
19940;SDS011;10132;50.864;5.176;2022-07-04T04:19:00;5.47;;;2.70;;
19940;SDS011;10132;50.864;5.176;2022-07-04T04:21:08;4.03;;;2.83;;
19940;SDS011;10132;50.864;5.176;2022-07-04T04:23:10;3.37;;;2.60;;
19940;SDS011;10132;50.864;5.176;2022-07-04T04:25:12;5.70;;;2.93;;
19940;SDS011;10132;50.864;5.176;2022-07-04T04:27:15;3.73;;;2.63;;
19940;SDS011;10132;50.864;5.176;2022-07-04T04:29:17;4.80;;;2.80;;
19940;SDS011;10132;50.864;5.176;2022-07-04T04:31:19;4.47;;;2.80;;
19940;SDS011;10132;50.864;5.176;2022-07-04T04:33:21;2.70;;;2.23;;
19940;SDS011;10132;50.864;5.176;2022-07-04T04:35:23;4.90;;;2.43;;
19940;SDS011;10132;50.864;5.176;2022-07-04T04:37:26;4.57;;;2.90;;
19940;SDS011;10132;50.864;5.176;2022-07-04T04:39:28;4.03;;;2.80;;
19940;SDS011;10132;50.864;5.176;2022-07-04T04:41:30;2.90;;;2.40;;
19940;SDS011;10132;50.864;5.176;2022-07-04T04:43:33;5.10;;;3.00;;
19940;SDS011;10132;50.864;5.176;2022-07-04T04:45:35;4.63;;;3.47;;
19940;SDS011;10132;50.864;5.176;2022-07-04T04:47:37;5.33;;;3.20;;
19940;SDS011;10132;50.864;5.176;2022-07-04T04:49:41;6.40;;;3.00;;
19940;SDS011;10132;50.864;5.176;2022-07-04T04:51:43;5.17;;;3.20;;
19940;SDS011;10132;50.864;5.176;2022-07-04T04:53:47;5.77;;;3.20;;
19940;SDS011;10132;50.864;5.176;2022-07-04T04:55:49;4.30;;;3.03;;
19940;SDS011;10132;50.864;5.176;2022-07-04T04:57:51;6.70;;;3.50;;
19940;SDS011;10132;50.864;5.176;2022-07-04T04:59:53;5.30;;;3.13;;
19940;SDS011;10132;50.864;5.176;2022-07-04T05:01:55;7.07;;;3.20;;
19940;SDS011;10132;50.864;5.176;2022-07-04T05:03:57;3.93;;;2.47;;
19940;SDS011;10132;50.864;5.176;2022-07-04T05:06:00;5.00;;;2.80;;
19940;SDS011;10132;50.864;5.176;2022-07-04T05:08:02;3.47;;;3.03;;
19940;SDS011;10132;50.864;5.176;2022-07-04T05:10:08;3.33;;;3.03;;
19940;SDS011;10132;50.864;5.176;2022-07-04T05:12:11;4.57;;;3.10;;
19940;SDS011;10132;50.864;5.176;2022-07-04T05:14:13;4.97;;;3.33;;
19940;SDS011;10132;50.864;5.176;2022-07-04T05:16:15;6.43;;;3.37;;
19940;SDS011;10132;50.864;5.176;2022-07-04T05:18:17;7.23;;;3.20;;
19940;SDS011;10132;50.864;5.176;2022-07-04T05:20:20;5.57;;;3.30;;
19940;SDS011;10132;50.864;5.176;2022-07-04T05:22:22;6.40;;;3.47;;
19940;SDS011;10132;50.864;5.176;2022-07-04T05:24:24;5.13;;;3.23;;
19940;SDS011;10132;50.864;5.176;2022-07-04T05:26:28;5.93;;;3.20;;
19940;SDS011;10132;50.864;5.176;2022-07-04T05:28:30;5.50;;;3.30;;
19940;SDS011;10132;50.864;5.176;2022-07-04T05:30:46;6.87;;;3.20;;
19940;SDS011;10132;50.864;5.176;2022-07-04T05:32:49;7.17;;;2.67;;
19940;SDS011;10132;50.864;5.176;2022-07-04T05:34:51;8.07;;;3.00;;
19940;SDS011;10132;50.864;5.176;2022-07-04T05:36:53;4.17;;;2.70;;
19940;SDS011;10132;50.864;5.176;2022-07-04T05:38:56;7.03;;;3.40;;
19940;SDS011;10132;50.864;5.176;2022-07-04T05:40:58;5.10;;;3.33;;
19940;SDS011;10132;50.864;5.176;2022-07-04T05:43:02;5.03;;;2.80;;
19940;SDS011;10132;50.864;5.176;2022-07-04T05:45:04;6.60;;;3.40;;
19940;SDS011;10132;50.864;5.176;2022-07-04T05:47:07;12.27;;;4.10;;
19940;SDS011;10132;50.864;5.176;2022-07-04T05:49:09;6.13;;;2.63;;
19940;SDS011;10132;50.864;5.176;2022-07-04T05:51:11;7.23;;;3.10;;
19940;SDS011;10132;50.864;5.176;2022-07-04T05:53:14;7.13;;;2.60;;
19940;SDS011;10132;50.864;5.176;2022-07-04T05:55:16;4.83;;;2.87;;
19940;SDS011;10132;50.864;5.176;2022-07-04T05:57:18;6.13;;;2.63;;
19940;SDS011;10132;50.864;5.176;2022-07-04T05:59:23;4.17;;;2.53;;
19940;SDS011;10132;50.864;5.176;2022-07-04T06:01:25;4.23;;;2.50;;
19940;SDS011;10132;50.864;5.176;2022-07-04T06:03:27;4.80;;;2.50;;
19940;SDS011;10132;50.864;5.176;2022-07-04T06:05:29;3.63;;;2.23;;
19940;SDS011;10132;50.864;5.176;2022-07-04T06:07:32;5.53;;;2.47;;
19940;SDS011;10132;50.864;5.176;2022-07-04T06:09:35;5.33;;;2.33;;
19940;SDS011;10132;50.864;5.176;2022-07-04T06:11:37;7.90;;;2.90;;
19940;SDS011;10132;50.864;5.176;2022-07-04T06:13:39;6.97;;;2.10;;
19940;SDS011;10132;50.864;5.176;2022-07-04T06:15:43;11.47;;;3.23;;
19940;SDS011;10132;50.864;5.176;2022-07-04T06:17:45;4.67;;;2.30;;
19940;SDS011;10132;50.864;5.176;2022-07-04T06:19:47;4.63;;;2.50;;
19940;SDS011;10132;50.864;5.176;2022-07-04T06:21:49;6.43;;;2.60;;
19940;SDS011;10132;50.864;5.176;2022-07-04T06:23:51;4.40;;;2.40;;
19940;SDS011;10132;50.864;5.176;2022-07-04T06:25:54;5.73;;;2.27;;
19940;SDS011;10132;50.864;5.176;2022-07-04T06:27:56;6.47;;;2.40;;
19940;SDS011;10132;50.864;5.176;2022-07-04T06:29:58;5.03;;;2.83;;
19940;SDS011;10132;50.864;5.176;2022-07-04T06:32:02;8.43;;;2.80;;
19940;SDS011;10132;50.864;5.176;2022-07-04T06:34:06;5.30;;;2.63;;
19940;SDS011;10132;50.864;5.176;2022-07-04T06:36:25;4.97;;;2.50;;
19940;SDS011;10132;50.864;5.176;2022-07-04T06:38:28;4.70;;;2.20;;
19940;SDS011;10132;50.864;5.176;2022-07-04T06:40:30;5.37;;;2.30;;
19940;SDS011;10132;50.864;5.176;2022-07-04T06:42:32;4.47;;;1.90;;
19940;SDS011;10132;50.864;5.176;2022-07-04T06:44:35;5.57;;;2.17;;
19940;SDS011;10132;50.864;5.176;2022-07-04T06:46:38;6.23;;;2.27;;
19940;SDS011;10132;50.864;5.176;2022-07-04T06:48:41;8.73;;;2.40;;
19940;SDS011;10132;50.864;5.176;2022-07-04T06:50:44;4.33;;;2.07;;
19940;SDS011;10132;50.864;5.176;2022-07-04T06:52:46;8.90;;;2.20;;
19940;SDS011;10132;50.864;5.176;2022-07-04T06:54:48;4.57;;;2.00;;
19940;SDS011;10132;50.864;5.176;2022-07-04T06:56:50;5.72;;;2.22;;
19940;SDS011;10132;50.864;5.176;2022-07-04T06:58:52;5.43;;;2.00;;
19940;SDS011;10132;50.864;5.176;2022-07-04T07:00:54;6.88;;;1.92;;
19940;SDS011;10132;50.864;5.176;2022-07-04T07:02:57;7.60;;;1.87;;
19940;SDS011;10132;50.864;5.176;2022-07-04T07:05:00;3.33;;;2.08;;
19940;SDS011;10132;50.864;5.176;2022-07-04T07:07:03;4.53;;;1.98;;
19940;SDS011;10132;50.864;5.176;2022-07-04T07:09:05;6.22;;;1.88;;
19940;SDS011;10132;50.864;5.176;2022-07-04T07:11:07;5.80;;;2.08;;
19940;SDS011;10132;50.864;5.176;2022-07-04T07:13:18;5.18;;;1.75;;
19940;SDS011;10132;50.864;5.176;2022-07-04T07:15:20;3.90;;;1.75;;
19940;SDS011;10132;50.864;5.176;2022-07-04T07:17:24;6.47;;;1.90;;
19940;SDS011;10132;50.864;5.176;2022-07-04T07:19:27;4.55;;;1.80;;
19940;SDS011;10132;50.864;5.176;2022-07-04T07:21:30;5.53;;;2.05;;
19940;SDS011;10132;50.864;5.176;2022-07-04T07:23:32;7.07;;;1.73;;
19940;SDS011;10132;50.864;5.176;2022-07-04T07:25:34;4.78;;;1.95;;
19940;SDS011;10132;50.864;5.176;2022-07-04T07:27:37;4.68;;;1.67;;
19940;SDS011;10132;50.864;5.176;2022-07-04T07:29:41;4.65;;;1.58;;
19940;SDS011;10132;50.864;5.176;2022-07-04T07:31:43;5.22;;;1.35;;
19940;SDS011;10132;50.864;5.176;2022-07-04T07:33:45;3.33;;;1.30;;
19940;SDS011;10132;50.864;5.176;2022-07-04T07:35:47;3.25;;;1.40;;
19940;SDS011;10132;50.864;5.176;2022-07-04T07:37:51;4.57;;;1.52;;
19940;SDS011;10132;50.864;5.176;2022-07-04T07:39:53;7.47;;;2.42;;
19940;SDS011;10132;50.864;5.176;2022-07-04T07:41:55;6.03;;;1.42;;
19940;SDS011;10132;50.864;5.176;2022-07-04T07:43:57;5.47;;;1.50;;
19940;SDS011;10132;50.864;5.176;2022-07-04T07:46:00;5.10;;;1.58;;
19940;SDS011;10132;50.864;5.176;2022-07-04T07:48:02;4.45;;;1.45;;
19940;SDS011;10132;50.864;5.176;2022-07-04T07:50:05;5.38;;;1.80;;
19940;SDS011;10132;50.864;5.176;2022-07-04T07:52:08;8.35;;;1.77;;
19940;SDS011;10132;50.864;5.176;2022-07-04T07:54:11;6.88;;;1.77;;
19940;SDS011;10132;50.864;5.176;2022-07-04T07:56:13;3.58;;;1.50;;
19940;SDS011;10132;50.864;5.176;2022-07-04T07:58:16;7.10;;;1.73;;
19940;SDS011;10132;50.864;5.176;2022-07-04T08:00:20;5.80;;;1.60;;
19940;SDS011;10132;50.864;5.176;2022-07-04T08:02:22;6.95;;;1.92;;
19940;SDS011;10132;50.864;5.176;2022-07-04T08:04:44;4.82;;;1.60;;
19940;SDS011;10132;50.864;5.176;2022-07-04T08:06:46;5.65;;;1.95;;
19940;SDS011;10132;50.864;5.176;2022-07-04T08:08:48;3.85;;;1.50;;
19940;SDS011;10132;50.864;5.176;2022-07-04T08:10:52;4.40;;;1.50;;
19940;SDS011;10132;50.864;5.176;2022-07-04T08:12:54;5.53;;;1.60;;
19940;SDS011;10132;50.864;5.176;2022-07-04T08:14:56;3.42;;;1.45;;
19940;SDS011;10132;50.864;5.176;2022-07-04T08:16:58;4.03;;;1.45;;
19940;SDS011;10132;50.864;5.176;2022-07-04T08:19:02;4.10;;;1.75;;
19940;SDS011;10132;50.864;5.176;2022-07-04T08:21:05;5.00;;;1.90;;
19940;SDS011;10132;50.864;5.176;2022-07-04T08:23:07;5.90;;;1.80;;
19940;SDS011;10132;50.864;5.176;2022-07-04T08:25:09;4.47;;;1.85;;
19940;SDS011;10132;50.864;5.176;2022-07-04T08:27:13;9.70;;;2.10;;
19940;SDS011;10132;50.864;5.176;2022-07-04T08:29:15;7.50;;;1.92;;
19940;SDS011;10132;50.864;5.176;2022-07-04T08:31:17;5.03;;;1.70;;
19940;SDS011;10132;50.864;5.176;2022-07-04T08:33:19;4.43;;;1.30;;
19940;SDS011;10132;50.864;5.176;2022-07-04T08:35:22;4.05;;;1.50;;
19940;SDS011;10132;50.864;5.176;2022-07-04T08:37:24;4.10;;;1.38;;
19940;SDS011;10132;50.864;5.176;2022-07-04T08:39:26;4.00;;;1.40;;
19940;SDS011;10132;50.864;5.176;2022-07-04T08:41:28;5.32;;;1.45;;
19940;SDS011;10132;50.864;5.176;2022-07-04T08:43:38;4.60;;;1.40;;
19940;SDS011;10132;50.864;5.176;2022-07-04T08:45:41;4.03;;;1.65;;
19940;SDS011;10132;50.864;5.176;2022-07-04T08:47:48;2.83;;;1.30;;
19940;SDS011;10132;50.864;5.176;2022-07-04T08:49:54;4.68;;;1.33;;
19940;SDS011;10132;50.864;5.176;2022-07-04T08:52:05;4.70;;;1.45;;
19940;SDS011;10132;50.864;5.176;2022-07-04T08:54:10;3.50;;;1.05;;
19940;SDS011;10132;50.864;5.176;2022-07-04T08:56:28;3.90;;;1.10;;
19940;SDS011;10132;50.864;5.176;2022-07-04T08:58:49;4.15;;;1.00;;
19940;SDS011;10132;50.864;5.176;2022-07-04T09:00:51;3.80;;;1.10;;
19940;SDS011;10132;50.864;5.176;2022-07-04T09:02:54;3.10;;;1.20;;
19940;SDS011;10132;50.864;5.176;2022-07-04T09:04:57;3.72;;;1.20;;
19940;SDS011;10132;50.864;5.176;2022-07-04T09:07:00;2.80;;;1.00;;
19940;SDS011;10132;50.864;5.176;2022-07-04T09:09:04;2.78;;;1.10;;
19940;SDS011;10132;50.864;5.176;2022-07-04T09:11:08;5.20;;;1.42;;
19940;SDS011;10132;50.864;5.176;2022-07-04T09:13:12;4.47;;;0.95;;
19940;SDS011;10132;50.864;5.176;2022-07-04T09:15:17;2.13;;;0.93;;
19940;SDS011;10132;50.864;5.176;2022-07-04T09:17:20;1.98;;;0.80;;
19940;SDS011;10132;50.864;5.176;2022-07-04T09:19:22;3.70;;;1.08;;
19940;SDS011;10132;50.864;5.176;2022-07-04T09:23:45;5.35;;;1.00;;
19940;SDS011;10132;50.864;5.176;2022-07-04T09:25:48;4.82;;;1.17;;
19940;SDS011;10132;50.864;5.176;2022-07-04T09:28:07;3.45;;;0.90;;
19940;SDS011;10132;50.864;5.176;2022-07-04T09:30:09;5.00;;;1.27;;
19940;SDS011;10132;50.864;5.176;2022-07-04T09:32:14;4.82;;;1.10;;
19940;SDS011;10132;50.864;5.176;2022-07-04T09:34:34;5.72;;;1.10;;
19940;SDS011;10132;50.864;5.176;2022-07-04T09:36:38;4.03;;;1.17;;
19940;SDS011;10132;50.864;5.176;2022-07-04T09:38:41;3.33;;;1.40;;
19940;SDS011;10132;50.864;5.176;2022-07-04T09:40:44;4.28;;;1.60;;
19940;SDS011;10132;50.864;5.176;2022-07-04T09:43:11;3.38;;;1.20;;
19940;SDS011;10132;50.864;5.176;2022-07-04T09:45:13;3.65;;;1.33;;
19940;SDS011;10132;50.864;5.176;2022-07-04T09:47:21;4.22;;;1.27;;
19940;SDS011;10132;50.864;5.176;2022-07-04T09:49:25;3.42;;;1.02;;
19940;SDS011;10132;50.864;5.176;2022-07-04T09:51:37;4.60;;;1.15;;
19940;SDS011;10132;50.864;5.176;2022-07-04T09:53:41;3.78;;;1.42;;
19940;SDS011;10132;50.864;5.176;2022-07-04T09:55:43;5.03;;;1.33;;
19940;SDS011;10132;50.864;5.176;2022-07-04T09:57:46;3.53;;;1.17;;
19940;SDS011;10132;50.864;5.176;2022-07-04T09:59:49;4.57;;;1.15;;
19940;SDS011;10132;50.864;5.176;2022-07-04T10:01:51;6.10;;;1.10;;
19940;SDS011;10132;50.864;5.176;2022-07-04T10:03:59;3.65;;;1.30;;
19940;SDS011;10132;50.864;5.176;2022-07-04T10:06:03;3.70;;;1.20;;
19940;SDS011;10132;50.864;5.176;2022-07-04T10:08:06;4.60;;;1.60;;
19940;SDS011;10132;50.864;5.176;2022-07-04T10:12:39;2.95;;;1.13;;
19940;SDS011;10132;50.864;5.176;2022-07-04T10:14:44;3.17;;;1.02;;
19940;SDS011;10132;50.864;5.176;2022-07-04T10:16:46;4.15;;;1.08;;
19940;SDS011;10132;50.864;5.176;2022-07-04T10:18:48;4.38;;;1.30;;
19940;SDS011;10132;50.864;5.176;2022-07-04T10:20:52;2.35;;;0.90;;
19940;SDS011;10132;50.864;5.176;2022-07-04T10:22:55;2.45;;;0.90;;
19940;SDS011;10132;50.864;5.176;2022-07-04T10:24:58;2.83;;;1.00;;
19940;SDS011;10132;50.864;5.176;2022-07-04T10:27:00;4.15;;;1.38;;
19940;SDS011;10132;50.864;5.176;2022-07-04T10:29:02;6.13;;;1.10;;
19940;SDS011;10132;50.864;5.176;2022-07-04T10:31:05;2.15;;;1.00;;
19940;SDS011;10132;50.864;5.176;2022-07-04T10:33:08;4.07;;;1.27;;
19940;SDS011;10132;50.864;5.176;2022-07-04T10:35:12;4.60;;;1.20;;
19940;SDS011;10132;50.864;5.176;2022-07-04T10:37:17;2.58;;;1.20;;
19940;SDS011;10132;50.864;5.176;2022-07-04T10:39:21;2.95;;;1.08;;
19940;SDS011;10132;50.864;5.176;2022-07-04T10:41:24;2.17;;;1.02;;
19940;SDS011;10132;50.864;5.176;2022-07-04T10:43:36;4.22;;;1.40;;
19940;SDS011;10132;50.864;5.176;2022-07-04T10:45:53;2.70;;;1.02;;
19940;SDS011;10132;50.864;5.176;2022-07-04T10:47:55;4.47;;;1.30;;
19940;SDS011;10132;50.864;5.176;2022-07-04T10:49:58;4.95;;;1.25;;
19940;SDS011;10132;50.864;5.176;2022-07-04T10:52:07;5.03;;;1.35;;
19940;SDS011;10132;50.864;5.176;2022-07-04T10:54:13;2.35;;;1.10;;
19940;SDS011;10132;50.864;5.176;2022-07-04T10:56:31;3.25;;;1.02;;
19940;SDS011;10132;50.864;5.176;2022-07-04T10:58:40;1.92;;;0.95;;
19940;SDS011;10132;50.864;5.176;2022-07-04T11:03:17;1.55;;;0.80;;
19940;SDS011;10132;50.864;5.176;2022-07-04T11:05:30;5.85;;;1.00;;
19940;SDS011;10132;50.864;5.176;2022-07-04T11:10:20;5.75;;;1.50;;
19940;SDS011;10132;50.864;5.176;2022-07-04T11:12:23;3.17;;;1.17;;
19940;SDS011;10132;50.864;5.176;2022-07-04T11:14:31;1.98;;;1.05;;
19940;SDS011;10132;50.864;5.176;2022-07-04T11:16:50;2.15;;;0.90;;
19940;SDS011;10132;50.864;5.176;2022-07-04T11:18:52;3.90;;;1.10;;
19940;SDS011;10132;50.864;5.176;2022-07-04T11:20:55;2.63;;;0.80;;
19940;SDS011;10132;50.864;5.176;2022-07-04T11:23:02;2.53;;;0.98;;
19940;SDS011;10132;50.864;5.176;2022-07-04T11:25:05;3.58;;;1.02;;
19940;SDS011;10132;50.864;5.176;2022-07-04T11:27:10;3.65;;;0.93;;
19940;SDS011;10132;50.864;5.176;2022-07-04T11:29:12;2.85;;;0.90;;
19940;SDS011;10132;50.864;5.176;2022-07-04T11:31:14;1.92;;;0.98;;
19940;SDS011;10132;50.864;5.176;2022-07-04T11:33:17;2.78;;;1.00;;
19940;SDS011;10132;50.864;5.176;2022-07-04T11:35:20;4.35;;;1.05;;
19940;SDS011;10132;50.864;5.176;2022-07-04T11:37:23;1.70;;;0.80;;
19940;SDS011;10132;50.864;5.176;2022-07-04T11:39:25;3.65;;;0.90;;
19940;SDS011;10132;50.864;5.176;2022-07-04T11:41:27;2.95;;;1.00;;
19940;SDS011;10132;50.864;5.176;2022-07-04T11:43:50;4.00;;;0.93;;
19940;SDS011;10132;50.864;5.176;2022-07-04T11:46:10;3.65;;;1.00;;
19940;SDS011;10132;50.864;5.176;2022-07-04T11:48:19;2.70;;;1.10;;
19940;SDS011;10132;50.864;5.176;2022-07-04T11:50:22;4.82;;;1.02;;
19940;SDS011;10132;50.864;5.176;2022-07-04T11:52:27;3.38;;;1.20;;
19940;SDS011;10132;50.864;5.176;2022-07-04T11:54:31;2.42;;;0.95;;
19940;SDS011;10132;50.864;5.176;2022-07-04T11:56:33;1.50;;;0.80;;
19940;SDS011;10132;50.864;5.176;2022-07-04T11:58:39;2.80;;;0.90;;
19940;SDS011;10132;50.864;5.176;2022-07-04T12:00:42;1.38;;;0.85;;
19940;SDS011;10132;50.864;5.176;2022-07-04T12:02:45;2.85;;;0.90;;
19940;SDS011;10132;50.864;5.176;2022-07-04T12:04:51;2.83;;;1.20;;
19940;SDS011;10132;50.864;5.176;2022-07-04T12:06:54;2.03;;;0.73;;
19940;SDS011;10132;50.864;5.176;2022-07-04T12:08:59;2.78;;;0.80;;
19940;SDS011;10132;50.864;5.176;2022-07-04T12:11:01;3.47;;;0.90;;
19940;SDS011;10132;50.864;5.176;2022-07-04T12:13:04;3.15;;;1.02;;
19940;SDS011;10132;50.864;5.176;2022-07-04T12:15:09;2.83;;;1.10;;
19940;SDS011;10132;50.864;5.176;2022-07-04T12:17:17;2.33;;;1.00;;
19940;SDS011;10132;50.864;5.176;2022-07-04T12:19:20;3.25;;;1.15;;
19940;SDS011;10132;50.864;5.176;2022-07-04T12:21:23;4.03;;;1.10;;
19940;SDS011;10132;50.864;5.176;2022-07-04T12:23:25;2.33;;;1.10;;
19940;SDS011;10132;50.864;5.176;2022-07-04T12:25:29;2.38;;;1.20;;
19940;SDS011;10132;50.864;5.176;2022-07-04T12:27:33;2.60;;;1.20;;
19940;SDS011;10132;50.864;5.176;2022-07-04T12:29:35;3.03;;;1.10;;
19940;SDS011;10132;50.864;5.176;2022-07-04T12:31:38;4.68;;;1.40;;
19940;SDS011;10132;50.864;5.176;2022-07-04T12:33:43;2.55;;;1.45;;
19940;SDS011;10132;50.864;5.176;2022-07-04T12:35:55;1.88;;;1.20;;